createdAt,value
2023-02-03T00:09:20.162Z,87
2023-02-03T00:19:22.457Z,86
2023-02-03T00:29:24.276Z,86
2023-02-03T00:39:26.183Z,86
2023-02-03T00:49:28.494Z,86
2023-02-03T00:59:30.433Z,85
2023-02-03T01:09:32.582Z,85
2023-02-03T01:19:34.847Z,85
2023-02-03T01:39:38.658Z,85
2023-02-03T01:49:40.582Z,85
2023-02-03T01:59:42.792Z,85
2023-02-03T02:09:44.798Z,84
2023-02-03T02:19:46.987Z,84
2023-02-03T02:29:49.001Z,84
2023-02-03T02:39:51.209Z,84
2023-02-03T02:49:53.381Z,84
2023-02-03T02:59:55.859Z,84
2023-02-03T03:19:59.717Z,84
2023-02-03T03:30:01.797Z,84
2023-02-03T03:40:03.706Z,84
2023-02-03T03:50:05.620Z,83
2023-02-03T04:00:07.602Z,83
2023-02-03T04:10:09.858Z,83
2023-02-03T04:20:11.596Z,82
2023-02-03T04:30:14.162Z,82
2023-02-03T04:40:16.643Z,82
2023-02-03T04:50:18.298Z,82
2023-02-03T05:00:20.499Z,82
2023-02-03T05:10:22.177Z,82
2023-02-03T05:20:24.235Z,82
2023-02-03T05:30:26.472Z,82
2023-02-03T05:40:28.349Z,82
2023-02-03T05:50:30.288Z,82
2023-02-03T06:00:32.597Z,81
2023-02-03T06:10:34.463Z,81
2023-02-03T06:20:36.509Z,81
2023-02-03T06:30:38.702Z,81
2023-02-03T06:40:40.873Z,81
2023-02-03T06:50:42.807Z,81
2023-02-03T07:00:44.559Z,81
2023-02-03T07:10:47.019Z,81
2023-02-03T07:20:49.448Z,81
2023-02-03T07:30:51.836Z,81
2023-02-03T07:40:53.532Z,81
2023-02-03T07:50:55.709Z,80
2023-02-03T08:00:57.853Z,80
2023-02-03T08:10:59.584Z,80
2023-02-03T08:21:02.152Z,80
2023-02-03T08:41:07.006Z,80
2023-02-03T09:11:12.596Z,80
2023-02-03T09:21:21.000Z,79
2023-02-03T09:31:16.823Z,80
2023-02-03T09:41:18.887Z,80
2023-02-03T09:51:21.448Z,80
2023-02-03T10:01:23.563Z,80
2023-02-03T10:11:25.266Z,80
2023-02-03T10:21:27.591Z,81
2023-02-03T10:31:30.039Z,81
2023-02-03T10:41:32.424Z,81
2023-02-03T10:51:34.505Z,81
2023-02-03T11:01:36.271Z,81
2023-02-03T11:11:38.623Z,81
2023-02-03T11:21:41.145Z,81
2023-02-03T11:41:45.045Z,83
2023-02-03T11:51:47.653Z,84
2023-02-03T12:01:50.266Z,83
2023-02-03T12:11:52.683Z,83
2023-02-03T12:21:55.083Z,82
2023-02-03T12:31:57.497Z,82
2023-02-03T12:41:59.674Z,82
2023-02-03T12:52:02.302Z,81
2023-02-03T13:02:04.153Z,82
2023-02-03T13:12:05.804Z,84
2023-02-03T13:22:08.352Z,85
2023-02-03T13:32:10.291Z,85
2023-02-03T13:42:12.745Z,86
2023-02-03T13:52:15.992Z,86
2023-02-03T14:02:17.714Z,86
2023-02-03T14:12:19.677Z,85
2023-02-03T14:22:21.472Z,85
2023-02-03T14:32:23.381Z,85
2023-02-03T14:42:25.740Z,84
2023-02-03T15:02:30.219Z,82
2023-02-03T15:12:32.212Z,81
2023-02-03T15:22:34.477Z,80
2023-02-03T15:32:37.086Z,78
2023-02-03T15:42:39.151Z,78
2023-02-03T15:52:40.884Z,79
2023-02-03T16:02:43.000Z,79
2023-02-03T16:12:45.440Z,79
2023-02-03T16:22:47.926Z,78
2023-02-03T16:32:50.396Z,78
2023-02-03T16:42:52.773Z,77
2023-02-03T16:52:54.783Z,77
2023-02-03T17:02:58.555Z,77
2023-02-03T17:12:58.709Z,76
2023-02-03T17:23:00.345Z,75
2023-02-03T17:33:02.247Z,75
2023-02-03T18:03:09.457Z,77
2023-02-03T18:13:11.369Z,77
2023-02-03T18:23:13.418Z,77
2023-02-03T18:43:18.074Z,77
2023-02-03T18:53:20.209Z,77
2023-02-03T19:03:22.003Z,76
2023-02-03T19:13:23.986Z,76
2023-02-03T19:23:25.924Z,77
2023-02-03T19:33:27.834Z,78
2023-02-03T19:43:30.259Z,79
2023-02-03T19:53:32.562Z,79
2023-02-03T20:03:34.722Z,79
2023-02-03T20:13:36.878Z,79
2023-02-03T20:23:39.222Z,80
2023-02-03T20:33:41.315Z,79
2023-02-03T20:43:43.718Z,79
2023-02-03T20:53:45.528Z,78
2023-02-03T21:03:48.138Z,78
2023-02-03T21:13:49.980Z,78
2023-02-03T21:23:52.343Z,77
2023-02-03T21:33:54.878Z,77
2023-02-03T21:43:57.238Z,77
2023-02-03T21:53:59.276Z,77
2023-02-03T22:04:01.902Z,77
2023-02-03T22:14:03.727Z,77
2023-02-03T22:24:05.702Z,77
2023-02-03T22:34:07.717Z,77
2023-02-03T22:44:10.229Z,77
2023-02-03T22:44:32.140Z,77
2023-02-03T22:54:19.479Z,78
2023-02-03T23:04:21.147Z,78
2023-02-03T23:14:22.967Z,78
2023-02-03T23:24:25.207Z,78
2023-02-03T23:34:27.165Z,78
2023-02-03T23:44:28.783Z,79
2023-02-03T23:54:30.973Z,79
